EW5680 Merrick NY US current weather conditions

sailwx.info

Wind from 319 at 9 knots gusting 15

Air temperature 4.4° C
Dewpoint -2.6° C

Last reported at 2020-Jan-28 21:50 UTC.
Time now 2020-Jan-28 22:29 UTC

Location: N 40°39' W 073°32'.
View on Google Maps.

See reports from other nearby stations

  
Tides and Currents Weather Stations Pressure Air Temp Water Temp Dewpoint Dewpoint Depression Visibility Wind Speed Wind Dir Waves Ship Positions
date/time (UTC)wind fromknots sea level pressurealtimeterstation pressurevisibilityair tempwater tempwave heightnotes
2020-Jan-28 22:06 347 10 gusting 16 4.4
2020-Jan-28 21:50 319 9 gusting 15 4.4
2020-Jan-28 21:32 328 8 gusting 14 4.4
2020-Jan-28 21:11 319 9 gusting 15 4.4
2020-Jan-28 20:55 354 8 gusting 17 4.4
2020-Jan-28 20:36 309 8 gusting 16 4.4
2020-Jan-28 20:20 328 9 gusting 17 4.4
2020-Jan-28 20:02 307 11 gusting 15 4.4
2020-Jan-28 19:40 323 7 gusting 16 5.0
2020-Jan-28 19:25 297 12 gusting 16 5.0
2020-Jan-28 19:08 337 9 gusting 15 5.0
2020-Jan-28 18:48 303 10 gusting 16 5.6
2020-Jan-28 18:25 214 6 gusting 13 6.1
2020-Jan-28 18:10 249 6 gusting 13 6.1
2020-Jan-28 17:51 217 6 gusting 14 6.1
2020-Jan-28 17:32 237 7 gusting 14 5.6
2020-Jan-28 17:11 200 5 gusting 13 6.1
2020-Jan-28 16:51 229 6 gusting 13 6.1
2020-Jan-28 16:36 229 6 gusting 13 5.6
2020-Jan-28 16:20 250 3 gusting 11 6.1
2020-Jan-28 16:05 226 8 gusting 18 5.6
2020-Jan-28 15:46 250 5 gusting 13 5.0
2020-Jan-28 15:26 250 8 gusting 16 5.0
2020-Jan-28 15:06 229 6 gusting 12 5.0
2020-Jan-28 14:40 252 6 gusting 12 4.4
2020-Jan-28 14:21 249 7 gusting 14 3.9
2020-Jan-28 14:03 212 3 gusting 13 3.9
2020-Jan-28 13:46 221 4 gusting 15 3.9
2020-Jan-28 13:26
2020-Jan-28 13:06
2020-Jan-28 12:48
2020-Jan-28 12:26
2020-Jan-28 12:06
2020-Jan-28 11:51
2020-Jan-28 11:32
2020-Jan-28 11:17
2020-Jan-28 11:01 195 6 gusting 11 3.9
2020-Jan-28 10:41 217 6 gusting 13 3.9
2020-Jan-28 10:21 217 6 gusting 13 3.9
2020-Jan-28 10:02 229 6 gusting 13 3.9
2020-Jan-28 09:41 199 7 gusting 14 4.4
2020-Jan-28 09:21 305 8 gusting 13 3.3
2020-Jan-28 09:02 315 9 gusting 15 3.3
2020-Jan-28 08:46 307 8 gusting 12 3.3
2020-Jan-28 08:26 338 9 gusting 14 3.3
2020-Jan-28 08:10 300 9 gusting 16 3.9
2020-Jan-28 07:51 313 8 gusting 12 3.9
2020-Jan-28 07:31 304 9 gusting 13 3.9
2020-Jan-28 07:11 316 7 gusting 11 3.9
2020-Jan-28 06:56 305 6 gusting 10 3.9
2020-Jan-28 06:40 307 6 gusting 13 4.4
2020-Jan-28 06:20 307 8 gusting 12 4.4
2020-Jan-28 06:02 304 7 gusting 10 4.4
2020-Jan-28 05:46 325 5 gusting 9 4.4
2020-Jan-28 05:31 311 6 gusting 10 4.4
2020-Jan-28 05:11 302 6 gusting 9 4.4
2020-Jan-28 04:56 335 4 gusting 11 4.4
2020-Jan-28 04:36 314 6 gusting 11 4.4
2020-Jan-28 04:16 307 6 gusting 10 5.0
2020-Jan-28 04:02 308 7 gusting 11 5.0
2020-Jan-28 03:46 292 8 gusting 14 5.0
2020-Jan-28 03:31 296 6 gusting 13 5.0
2020-Jan-28 03:10 307 6 gusting 10 5.0
2020-Jan-28 02:51 302 4 gusting 8 5.6
2020-Jan-28 02:26 308 6 gusting 11 5.6
2020-Jan-28 02:06 301 6 gusting 11 5.6
2020-Jan-28 01:48 297 7 gusting 11 5.6
2020-Jan-28 01:32 323 5 gusting 9 5.6
2020-Jan-28 01:11 307 7 gusting 11 5.6
2020-Jan-28 00:51 293 6 gusting 10 6.1
2020-Jan-28 00:33 309 6 gusting 10 6.1
2020-Jan-28 00:10 304 5 gusting 9 6.1
2020-Jan-27 23:55 309 5 gusting 11 6.1
2020-Jan-27 23:36 315 8 gusting 13 6.1
2020-Jan-27 23:21 305 8 gusting 17 6.1
2020-Jan-27 23:02 310 6 gusting 11 6.1
2020-Jan-27 22:40 300 9 gusting 13 6.1
2020-Jan-27 22:25 295 7 gusting 13 6.7
2020-Jan-27 22:06 300 6 gusting 10 6.7
2020-Jan-27 21:48 303 4 gusting 7 6.1
2020-Jan-27 21:26 264 3 gusting 7 5.6
2020-Jan-27 21:06 287 4 gusting 10 5.6
2020-Jan-27 20:51 251 6 gusting 12 6.1
2020-Jan-27 20:35 266 6 gusting 11 6.1
2020-Jan-27 20:18 287 7 gusting 12 6.1
2020-Jan-27 20:01 293 7 gusting 14 6.1
2020-Jan-27 19:41 286 5 gusting 10 5.6
2020-Jan-27 19:25 282 7 gusting 15 5.6
2020-Jan-27 19:06 294 10 gusting 16 5.6
2020-Jan-27 18:47 271 9 gusting 17 5.6
2020-Jan-27 18:31 267 8 gusting 16 5.6
2020-Jan-27 18:11 262 11 gusting 14 5.6
2020-Jan-27 17:55 264 9 gusting 16 5.0
2020-Jan-27 17:36 261 8 gusting 13 5.0
2020-Jan-27 17:17 257 7 gusting 15 5.0
2020-Jan-27 17:02 278 10 gusting 15 5.0
2020-Jan-27 16:41 271 8 gusting 15 5.0
2020-Jan-27 16:26 265 10 gusting 14 4.4
2020-Jan-27 16:10 271 9 gusting 15 4.4
2020-Jan-27 15:51 249 6 gusting 16 4.4
2020-Jan-27 15:35 271 8 gusting 15 4.4
2020-Jan-27 15:16 278 9 gusting 18 4.4
2020-Jan-27 14:56 269 8 gusting 14 3.9
2020-Jan-27 14:36 277 10 gusting 15 3.9
2020-Jan-27 14:20 265 6 gusting 13 3.9
2020-Jan-27 14:03 278 8 gusting 14 3.9
2020-Jan-27 13:46 293 6 gusting 12 3.9
2020-Jan-27 13:25 253 9 gusting 15 3.3
2020-Jan-27 13:06 271 7 gusting 13 3.3
2020-Jan-27 12:51 276 8 gusting 13 3.3
2020-Jan-27 12:35 263 5 gusting 10 3.3
2020-Jan-27 12:18
2020-Jan-27 11:56
2020-Jan-27 11:40
2020-Jan-27 11:25
2020-Jan-27 11:06 152 7 gusting 12 4.4
2020-Jan-27 10:51 154 7 gusting 13 4.4
2020-Jan-27 10:35 153 8 gusting 12 4.4
2020-Jan-27 10:16 161 6 gusting 12 4.4
2020-Jan-27 09:56 166 7 gusting 12 4.4
2020-Jan-27 09:41 162 8 gusting 13 4.4
2020-Jan-27 09:25 275 5 gusting 9 2.8
2020-Jan-27 09:10 252 4 gusting 8 2.8
2020-Jan-27 08:51 268 6 gusting 10 2.8
2020-Jan-27 08:32 269 5 gusting 9 2.8
2020-Jan-27 08:10 293 5 gusting 9 2.8
2020-Jan-27 07:55 283 4 gusting 9 2.8
2020-Jan-27 07:36 284 4 gusting 7 2.8
2020-Jan-27 07:17 281 2 gusting 6 2.8
2020-Jan-27 07:01 262 1 gusting 5 2.8
2020-Jan-27 06:41 276 4 gusting 7 2.8
2020-Jan-27 06:25 270 4 gusting 6 2.8
2020-Jan-27 06:06 278 5 gusting 9 3.3
2020-Jan-27 05:50 274 4 gusting 9 3.3
2020-Jan-27 05:33 279 5 gusting 7 3.3
2020-Jan-27 05:16 276 5 gusting 8 3.3
2020-Jan-27 04:56 272 5 gusting 9 3.3
2020-Jan-27 04:40 285 5 gusting 8 3.9
2020-Jan-27 04:20 280 6 gusting 8 3.9
2020-Jan-27 04:05 288 5 gusting 8 3.9
2020-Jan-27 03:47 283 4 gusting 7 3.9
2020-Jan-27 03:32 264 5 gusting 11 3.9
2020-Jan-27 03:11 279 6 gusting 10 4.4
2020-Jan-27 02:56 276 5 gusting 13 4.4
2020-Jan-27 02:36 279 6 gusting 12 4.4
2020-Jan-27 02:17 292 6 gusting 9 5.0
2020-Jan-27 02:03 281 5 gusting 12 5.0
2020-Jan-27 01:47 282 6 gusting 14 5.0
2020-Jan-27 01:26 291 6 gusting 14 5.6
2020-Jan-27 01:05 270 7 gusting 13 5.6
2020-Jan-27 00:48 257 6 gusting 10 6.1
2020-Jan-27 00:25 311 6 gusting 13 6.1
2020-Jan-27 00:06 279 7 gusting 12 6.1
2020-Jan-26 23:50 271 5 gusting 7 6.1
2020-Jan-26 23:32 251 4 gusting 6 6.1
2020-Jan-26 23:16 263 4 gusting 7 6.1
2020-Jan-26 22:55 257 2 gusting 5 6.1
2020-Jan-26 22:36 252 4 gusting 7 6.1
2020-Jan-26 22:21 274 4 gusting 6 6.1
2020-Jan-26 22:05 236 4 gusting 8 6.7